Decoded Metar for LFBY (DAX in FRANCE) (IATA:N/A) | Meteo·Mobile Aviation Weather
aviador You're here:

LFBY Decoded Metar

DAX in FRANCE
Report Time2020-02-18 22:30:00
UTC Time2020-02-18 22:47:30
Flight Rules mvfr MVFR
Wind200° at 02 kt
W.Decomp.*RWY 26: 1.0 kt HW 1.7 kt LCW
Visibility5000 m
Phenomena:N/A
Clouds:N/A
Expected CloudBase > 400 ft AGL from Temp-Dew spread
CeilingNone
Temp06°C (ISA -9)
Dew Point05°C (93% RH)
AAT4.1°C
QNH1035 hPa
Density Alt-1,581 ft
Elevation105 ft
Report Wrong Elevation
Raw Report
METAR LFBY 182230Z AUTO 20002KT 5000 // ////// 06/05 Q1035=

Extra information for LFBY:More info

Metar Taf Metar & Taf Last 4 Metars F.Rules Stats Wind Profile Meteogram Temp Stats Airport Information Weather charts Add Link Nearby VenuesMetar ALERT Operation Metar Decoded Social comments